Time;durP1;ratioP1;P1;durP2;ratioP2;P2;SDS_P1;SDS_P2;PMS_P1;PMS_P2;Temp;Humidity;BMP_temperature;BMP_pressure;BME280_temperature;BME280_humidity;BME280_pressure;Samples;Min_cycle;Max_cycle;Signal;HPM_P1;HPM_P2
2022/09/15 00:01:05;;;;;;;1.88;1.10;;;;;;;17.79;100.00;97668.69;5048594;28;20060;-61
2022/09/15 00:03:50;;;;;;;2.55;1.00;;;;;;;17.85;100.00;97668.78;5051380;28;20553;-61
2022/09/15 00:06:35;;;;;;;1.55;1.10;;;;;;;17.80;100.00;97681.75;5060171;28;20118;-61
2022/09/15 00:09:34;;;;;;;2.10;1.10;;;;;;;17.86;100.00;97685.50;5051083;28;20041;-62
2022/09/15 00:12:20;;;;;;;1.77;1.20;;;;;;;18.02;100.00;97681.88;5053426;28;20110;-61
2022/09/15 00:15:05;;;;;;;3.15;1.05;;;;;;;18.02;100.00;97689.03;5053346;28;20049;-61
2022/09/15 00:17:51;;;;;;;3.20;0.85;;;;;;;18.03;100.00;97691.50;5052080;28;20045;-61
2022/09/15 00:20:40;;;;;;;3.58;0.90;;;;;;;18.05;100.00;97689.47;5045379;28;20029;-61
2022/09/15 00:23:25;;;;;;;2.40;1.08;;;;;;;18.07;100.00;97690.13;5052830;28;20511;-61
2022/09/15 00:26:12;;;;;;;1.10;0.80;;;;;;;18.02;100.00;97697.78;5050460;28;20423;-61
2022/09/15 00:28:58;;;;;;;2.17;0.90;;;;;;;17.78;100.00;97701.47;5050504;28;20037;-61
2022/09/15 00:31:43;;;;;;;2.08;0.88;;;;;;;17.59;100.00;97695.66;5039755;28;20119;-63
2022/09/15 00:34:27;;;;;;;3.65;0.90;;;;;;;17.49;100.00;97698.53;5040052;28;20044;-62
2022/09/15 00:37:12;;;;;;;1.70;0.90;;;;;;;17.48;100.00;97700.34;5049395;28;20109;-60
2022/09/15 00:39:57;;;;;;;2.35;0.90;;;;;;;17.55;100.00;97697.81;5050740;28;20052;-62
2022/09/15 00:42:41;;;;;;;2.08;1.15;;;;;;;17.65;100.00;97694.94;5038526;28;20112;-60
2022/09/15 00:45:26;;;;;;;1.52;0.85;;;;;;;17.62;100.00;97697.94;5053500;28;20395;-60
2022/09/15 00:48:16;;;;;;;2.45;0.90;;;;;;;17.54;100.00;97698.84;5051169;28;20048;-62
2022/09/15 00:51:02;;;;;;;4.65;0.82;;;;;;;17.61;100.00;97693.63;5050895;28;20065;-60
2022/09/15 00:53:48;;;;;;;0.88;0.70;;;;;;;17.60;100.00;97684.88;5061065;28;20037;-60
2022/09/15 00:56:35;;;;;;;2.03;0.80;;;;;;;17.72;100.00;97700.34;5044920;28;20040;-61
2022/09/15 00:59:23;;;;;;;4.93;1.15;;;;;;;17.70;100.00;97697.06;5049860;28;20052;-62
2022/09/15 01:02:11;;;;;;;0.98;0.60;;;;;;;17.66;100.00;97709.00;5055072;28;20047;-61
2022/09/15 01:04:59;;;;;;;3.13;0.88;;;;;;;17.63;100.00;97701.44;5051104;28;20464;-60
2022/09/15 01:07:50;;;;;;;4.25;1.02;;;;;;;17.72;100.00;97698.50;5042472;28;20041;-61
2022/09/15 01:10:37;;;;;;;4.57;0.80;;;;;;;17.98;100.00;97697.31;5048722;28;20136;-61
2022/09/15 01:13:22;;;;;;;2.50;0.98;;;;;;;18.04;100.00;97700.25;5046884;28;20599;-60
2022/09/15 01:16:35;;;;;;;1.42;0.80;;;;;;;17.96;100.00;97704.63;5033859;28;20067;-60
2022/09/15 01:19:32;;;;;;;2.95;0.90;;;;;;;17.87;100.00;97692.44;5045355;28;20498;-61
2022/09/15 01:22:22;;;;;;;2.65;1.08;;;;;;;17.85;100.00;97697.91;5040863;28;20032;-61
2022/09/15 01:25:28;;;;;;;1.90;0.70;;;;;;;17.85;100.00;97689.16;5037808;28;20442;-60
2022/09/15 01:28:49;;;;;;;2.97;0.80;;;;;;;17.88;100.00;97702.03;5050569;28;20092;-61
2022/09/15 01:33:02;;;;;;;1.58;0.60;;;;;;;17.95;100.00;97702.16;5055465;28;20487;-61
2022/09/15 01:34:51;;;;;;;2.20;0.82;;;;;;;17.92;100.00;97698.03;5052578;28;20128;-61
2022/09/15 01:37:42;;;;;;;1.92;0.57;;;;;;;17.96;100.00;97695.84;5042995;28;20599;-62
2022/09/15 01:40:34;;;;;;;2.78;0.90;;;;;;;17.96;100.00;97691.38;5069341;28;20093;-63
2022/09/15 01:43:22;;;;;;;2.05;0.70;;;;;;;17.95;100.00;97686.25;5041902;28;20041;-61
2022/09/15 01:46:08;;;;;;;1.27;0.68;;;;;;;17.95;100.00;97683.63;5048881;28;20496;-61
2022/09/15 01:48:55;;;;;;;3.05;0.60;;;;;;;17.90;100.00;97675.38;5052095;28;20045;-63
2022/09/15 01:51:41;;;;;;;1.55;0.70;;;;;;;18.01;100.00;97679.41;5041700;28;20098;-63
2022/09/15 01:54:31;;;;;;;5.43;0.70;;;;;;;18.05;100.00;97689.47;5047339;28;20038;-61
2022/09/15 01:57:20;;;;;;;2.20;0.65;;;;;;;18.25;100.00;97696.13;5045617;28;20392;-61
2022/09/15 02:00:05;;;;;;;0.90;0.55;;;;;;;18.09;100.00;97697.88;5056977;28;20037;-61
2022/09/15 02:02:57;;;;;;;2.53;0.77;;;;;;;18.20;100.00;97684.22;5051430;28;20048;-61
2022/09/15 02:05:50;;;;;;;1.58;0.63;;;;;;;18.22;100.00;97681.41;5036684;28;20079;-62
2022/09/15 02:09:00;;;;;;;3.75;0.80;;;;;;;18.14;100.00;97678.81;5040780;28;20108;-61
2022/09/15 02:12:20;;;;;;;2.13;0.50;;;;;;;18.32;100.00;97670.53;5044663;28;20033;-61
2022/09/15 02:15:09;;;;;;;4.50;0.93;;;;;;;18.28;100.00;97671.91;5054002;28;20437;-61
2022/09/15 02:17:56;;;;;;;2.30;0.50;;;;;;;18.26;100.00;97660.66;5046511;28;20053;-61
2022/09/15 02:20:50;;;;;;;2.25;0.80;;;;;;;18.43;100.00;97666.59;5042071;28;20036;-62
2022/09/15 02:23:42;;;;;;;3.70;0.98;;;;;;;18.41;100.00;97656.16;5044271;28;20041;-61
2022/09/15 02:26:30;;;;;;;2.20;0.70;;;;;;;18.28;100.00;97651.50;5045514;28;20048;-61
2022/09/15 02:29:20;;;;;;;2.63;0.80;;;;;;;18.20;100.00;97654.25;5076064;28;20104;-61
2022/09/15 02:32:07;;;;;;;1.40;0.82;;;;;;;18.14;100.00;97649.66;5036972;28;20033;-63
2022/09/15 02:34:54;;;;;;;3.20;0.82;;;;;;;18.10;100.00;97649.19;5045047;28;20075;-61
2022/09/15 02:37:38;;;;;;;3.85;0.88;;;;;;;18.06;100.00;97646.09;5078127;28;20086;-64
2022/09/15 02:40:26;;;;;;;1.15;0.68;;;;;;;18.06;100.00;97646.09;5051429;28;20132;-61
2022/09/15 02:43:15;;;;;;;3.33;0.75;;;;;;;17.99;100.00;97647.81;5068205;28;20044;-61
2022/09/15 02:46:00;;;;;;;3.47;0.70;;;;;;;17.94;100.00;97651.00;5066366;28;20067;-62
2022/09/15 02:48:45;;;;;;;5.80;0.98;;;;;;;17.89;100.00;97656.00;5068939;28;20082;-62
2022/09/15 02:51:30;;;;;;;3.55;0.80;;;;;;;17.82;100.00;97663.84;5064745;28;20138;-63
2022/09/15 02:54:14;;;;;;;2.15;0.60;;;;;;;17.76;100.00;97669.06;5068477;28;20033;-62
2022/09/15 02:56:59;;;;;;;4.55;0.85;;;;;;;17.67;100.00;97669.13;5071992;28;20058;-63
2022/09/15 03:02:49;;;;;;;2.70;0.90;;;;;;;17.69;100.00;97661.00;5063119;28;20086;-61
2022/09/15 03:05:34;;;;;;;3.22;0.75;;;;;;;17.84;100.00;97674.25;5069701;28;20123;-61
2022/09/15 03:08:18;;;;;;;3.33;0.80;;;;;;;17.79;100.00;97660.75;5066371;28;20135;-61
2022/09/15 03:11:03;;;;;;;2.33;0.70;;;;;;;17.98;100.00;97675.31;5059858;28;20065;-61
2022/09/15 03:13:52;;;;;;;2.15;0.77;;;;;;;17.97;100.00;97676.28;5058833;28;20049;-63
2022/09/15 03:16:37;;;;;;;1.65;0.80;;;;;;;17.95;100.00;97678.31;5061977;28;20045;-61
2022/09/15 03:19:21;;;;;;;2.03;0.80;;;;;;;17.94;100.00;97666.88;5048959;28;20060;-61
2022/09/15 03:22:08;;;;;;;1.08;0.57;;;;;;;17.89;100.00;97663.16;5035413;28;20084;-62
2022/09/15 03:24:53;;;;;;;2.65;0.63;;;;;;;18.02;100.00;97663.34;5048517;28;20106;-61
2022/09/15 03:27:38;;;;;;;4.15;0.63;;;;;;;18.01;100.00;97658.22;5041082;28;20045;-61
2022/09/15 03:30:23;;;;;;;1.95;0.70;;;;;;;18.02;100.00;97651.94;5052684;28;20097;-60
2022/09/15 03:33:07;;;;;;;2.00;0.60;;;;;;;17.95;100.00;97655.28;5046475;28;20064;-60
2022/09/15 03:35:52;;;;;;;0.90;0.60;;;;;;;18.03;100.00;97658.88;5049863;28;20072;-60
2022/09/15 03:38:37;;;;;;;2.50;0.68;;;;;;;18.20;100.00;97667.50;5038357;28;20136;-60
2022/09/15 03:41:22;;;;;;;1.10;0.60;;;;;;;18.48;100.00;97666.88;5054165;28;20037;-60
2022/09/15 03:44:06;;;;;;;1.60;0.52;;;;;;;18.51;100.00;97674.44;5052050;28;20044;-61
2022/09/15 03:46:51;;;;;;;2.28;1.00;;;;;;;18.34;100.00;97666.69;5038882;28;20416;-60
2022/09/15 03:49:36;;;;;;;1.35;0.82;;;;;;;18.33;100.00;97669.50;5039064;28;20037;-60
2022/09/15 03:52:21;;;;;;;1.30;0.50;;;;;;;18.36;100.00;97674.44;5059004;28;20049;-61
2022/09/15 03:55:05;;;;;;;3.53;0.70;;;;;;;18.43;100.00;97675.38;5053884;28;20029;-62
2022/09/15 03:57:50;;;;;;;1.23;0.60;;;;;;;18.42;100.00;97684.34;5045016;28;20044;-60
2022/09/15 04:00:34;;;;;;;1.60;0.50;;;;;;;18.36;100.00;97674.44;5047076;28;21038;-62
2022/09/15 04:03:19;;;;;;;2.55;0.68;;;;;;;18.36;100.00;97685.03;5045359;28;20476;-61
2022/09/15 04:06:04;;;;;;;1.23;0.60;;;;;;;18.43;100.00;97678.03;5056155;28;20033;-60
2022/09/15 04:08:50;;;;;;;1.98;0.95;;;;;;;18.45;100.00;97681.31;5046036;28;20119;-61
2022/09/15 04:11:35;;;;;;;2.70;0.90;;;;;;;18.18;100.00;97677.47;5051834;28;20392;-61
2022/09/15 04:14:20;;;;;;;4.13;0.77;;;;;;;18.02;100.00;97691.69;5041052;28;20110;-60
2022/09/15 04:17:04;;;;;;;2.35;0.60;;;;;;;18.21;100.00;97695.66;5045892;28;20068;-62
2022/09/15 04:19:50;;;;;;;1.15;0.70;;;;;;;18.28;100.00;97696.56;5051863;28;20034;-63
2022/09/15 04:22:34;;;;;;;3.10;0.60;;;;;;;18.39;100.00;97703.28;5051365;28;20049;-62
2022/09/15 04:25:19;;;;;;;1.10;0.70;;;;;;;18.50;100.00;97709.09;5054020;28;20103;-61
2022/09/15 04:28:04;;;;;;;2.08;0.85;;;;;;;18.15;100.00;97707.00;5060156;28;20044;-62
2022/09/15 04:30:49;;;;;;;4.65;0.73;;;;;;;18.00;100.00;97696.31;5044721;28;20136;-61
2022/09/15 04:33:34;;;;;;;2.00;0.65;;;;;;;18.12;100.00;97691.38;5050613;28;20635;-61
2022/09/15 04:36:22;;;;;;;2.95;1.00;;;;;;;18.09;100.00;97690.78;5047149;28;20479;-61
2022/09/15 04:39:06;;;;;;;2.33;0.75;;;;;;;18.06;100.00;97690.28;5049559;28;20055;-61
2022/09/15 04:41:51;;;;;;;3.22;0.70;;;;;;;17.97;100.00;97689.53;5043039;28;20045;-60
2022/09/15 04:44:35;;;;;;;1.40;0.52;;;;;;;17.96;100.00;97683.44;5052662;28;20048;-63
2022/09/15 04:47:20;;;;;;;1.85;0.70;;;;;;;17.90;100.00;97691.28;5070873;28;20526;-61
2022/09/15 04:50:06;;;;;;;2.67;0.80;;;;;;;17.90;100.00;97685.97;5052683;28;20045;-62
2022/09/15 04:52:51;;;;;;;5.65;0.73;;;;;;;17.92;100.00;97683.97;5051804;28;20061;-61
2022/09/15 04:55:36;;;;;;;3.00;0.90;;;;;;;17.90;100.00;97684.16;5040204;28;20107;-61
2022/09/15 04:58:20;;;;;;;1.05;0.70;;;;;;;17.85;100.00;97679.38;5059952;28;20093;-60
2022/09/15 05:01:10;;;;;;;4.65;1.00;;;;;;;17.86;100.00;97685.50;5052894;28;20388;-60
2022/09/15 05:03:55;;;;;;;1.20;0.70;;;;;;;17.89;100.00;97689.63;5051593;28;20060;-61
2022/09/15 05:06:40;;;;;;;3.45;1.00;;;;;;;17.88;100.00;97682.66;5049694;28;20068;-60
2022/09/15 05:09:26;;;;;;;2.22;0.70;;;;;;;17.93;100.00;97680.31;5049160;28;20121;-60
2022/09/15 05:12:10;;;;;;;3.95;0.90;;;;;;;17.89;100.00;97682.50;5050662;28;20045;-61
2022/09/15 05:14:55;;;;;;;2.70;0.70;;;;;;;17.92;100.00;97682.13;5049771;28;20488;-60
2022/09/15 05:17:40;;;;;;;2.65;0.82;;;;;;;17.90;100.00;97680.69;5047619;28;20091;-61
2022/09/15 05:20:26;;;;;;;3.17;0.90;;;;;;;17.85;100.00;97689.16;5053919;28;20055;-61
2022/09/15 05:23:12;;;;;;;2.80;0.90;;;;;;;17.92;100.00;97699.88;5046090;28;20433;-62
2022/09/15 05:25:58;;;;;;;4.60;1.27;;;;;;;17.88;100.00;97704.69;5037602;28;20049;-61
2022/09/15 05:28:42;;;;;;;1.80;0.80;;;;;;;18.15;100.00;97713.09;5044040;28;20080;-67
2022/09/15 05:31:30;;;;;;;3.47;1.10;;;;;;;18.27;100.00;97710.84;5047567;28;20041;-67
2022/09/15 05:34:14;;;;;;;1.58;0.80;;;;;;;18.68;100.00;97706.94;5046578;28;20033;-67
2022/09/15 05:36:59;;;;;;;6.93;0.93;;;;;;;19.19;100.00;97725.75;5046791;28;20424;-66
2022/09/15 05:39:44;;;;;;;4.78;0.75;;;;;;;19.60;99.08;97734.94;5046494;28;20049;-66
2022/09/15 05:42:30;;;;;;;5.05;1.00;;;;;;;19.92;97.77;97740.78;5040777;28;20528;-67
2022/09/15 05:45:15;;;;;;;1.67;0.70;;;;;;;20.17;95.40;97743.03;5044982;28;20108;-68
2022/09/15 05:47:59;;;;;;;2.85;0.93;;;;;;;20.12;93.20;97736.66;5055549;28;20064;-64
2022/09/15 05:50:48;;;;;;;3.35;1.00;;;;;;;19.84;95.26;97732.94;5057459;28;20060;-65
2022/09/15 05:53:34;;;;;;;4.05;0.93;;;;;;;20.01;93.98;97738.78;5051387;28;20064;-68
2022/09/15 05:56:19;;;;;;;4.97;0.75;;;;;;;20.40;91.93;97734.00;5049881;28;20361;-68
2022/09/15 05:59:03;;;;;;;2.25;0.85;;;;;;;20.17;95.68;97747.56;5051584;28;20072;-65
2022/09/15 06:01:48;;;;;;;2.30;0.95;;;;;;;20.31;91.47;97753.78;5036932;28;20090;-66
2022/09/15 06:04:33;;;;;;;2.55;1.02;;;;;;;20.09;94.29;97750.34;5042495;28;20119;-66
2022/09/15 06:07:18;;;;;;;1.08;0.60;;;;;;;20.05;96.43;97760.53;5048187;28;20055;-67
2022/09/15 06:10:03;;;;;;;2.33;1.08;;;;;;;19.99;96.63;97754.13;5035010;28;20045;-67
2022/09/15 06:12:48;;;;;;;2.42;0.90;;;;;;;20.11;95.43;97750.97;5041342;28;20040;-70
2022/09/15 06:15:33;;;;;;;2.90;0.88;;;;;;;20.46;93.92;97751.03;5048860;28;20112;-65
2022/09/15 06:18:17;;;;;;;5.18;0.90;;;;;;;20.51;93.93;97742.47;5047455;28;20035;-67
2022/09/15 06:21:04;;;;;;;2.38;1.17;;;;;;;20.38;92.21;97754.66;5045162;28;20136;-66
2022/09/15 06:23:53;;;;;;;1.73;0.88;;;;;;;20.31;92.26;97773.22;5053235;28;20420;-70
2022/09/15 06:26:38;;;;;;;1.65;0.70;;;;;;;20.18;93.40;97771.28;5031910;28;20163;-61
2022/09/15 06:29:24;;;;;;;1.10;0.65;;;;;;;20.27;90.77;97763.97;5045538;28;20063;-61
2022/09/15 06:32:08;;;;;;;4.88;1.33;;;;;;;20.27;90.61;97771.94;5034542;28;20064;-66
2022/09/15 06:34:53;;;;;;;4.13;1.00;;;;;;;20.42;90.70;97774.53;5050125;28;20091;-64
2022/09/15 06:37:38;;;;;;;1.58;0.75;;;;;;;20.66;87.70;97759.13;5051687;28;20044;-68
2022/09/15 06:40:23;;;;;;;2.95;0.77;;;;;;;21.17;84.99;97764.31;5038333;28;20052;-66
2022/09/15 06:43:07;;;;;;;3.80;0.80;;;;;;;20.92;86.57;97770.16;5035915;28;20495;-66
2022/09/15 06:45:52;;;;;;;2.53;0.75;;;;;;;20.70;87.56;97791.50;5049518;28;20071;-64
2022/09/15 06:48:38;;;;;;;1.98;0.60;;;;;;;20.55;87.50;97786.25;5043612;28;20053;-62
2022/09/15 06:51:27;;;;;;;2.08;0.73;;;;;;;20.62;87.36;97794.28;5044276;28;20073;-66
2022/09/15 06:54:15;;;;;;;2.97;1.20;;;;;;;20.51;88.25;97806.31;5042355;28;20044;-66
2022/09/15 06:56:59;;;;;;;8.48;1.38;;;;;;;20.36;88.67;97796.56;5043253;28;20033;-66
2022/09/15 06:59:44;;;;;;;4.75;0.80;;;;;;;20.20;90.82;97808.31;5043729;28;20464;-65
2022/09/15 07:02:30;;;;;;;2.63;0.70;;;;;;;20.06;90.56;97815.31;5047517;28;20044;-65
2022/09/15 07:05:15;;;;;;;2.60;0.80;;;;;;;20.01;89.62;97815.06;5051133;28;20037;-66
2022/09/15 07:07:59;;;;;;;1.50;0.82;;;;;;;20.17;89.57;97829.97;5050403;28;20041;-61
2022/09/15 07:10:44;;;;;;;4.70;0.73;;;;;;;19.96;89.98;97828.09;5051726;28;20068;-60
2022/09/15 07:13:30;;;;;;;2.78;0.80;;;;;;;20.01;90.09;97823.84;5055263;28;20045;-65
2022/09/15 07:16:15;;;;;;;1.83;0.68;;;;;;;20.10;89.13;97826.41;5054514;28;20078;-59
2022/09/15 07:19:02;;;;;;;2.55;0.85;;;;;;;20.10;88.05;97819.25;5053139;28;20044;-59
2022/09/15 07:21:46;;;;;;;1.98;0.98;;;;;;;20.31;87.37;97809.63;5051611;28;20048;-59
2022/09/15 07:24:31;;;;;;;2.67;1.05;;;;;;;20.29;86.24;97815.13;5047821;28;20036;-59
2022/09/15 07:27:15;;;;;;;3.58;0.85;;;;;;;20.34;85.28;97811.06;5045966;28;20033;-61
2022/09/15 07:30:01;;;;;;;2.88;0.98;;;;;;;20.42;84.32;97825.06;5052842;28;20090;-58
2022/09/15 07:32:45;;;;;;;2.75;0.98;;;;;;;20.32;86.34;97827.22;5089028;28;20039;-60
2022/09/15 07:35:30;;;;;;;4.18;0.80;;;;;;;20.36;86.14;97819.69;5048176;28;20082;-59
2022/09/15 07:38:16;;;;;;;7.78;1.42;;;;;;;20.50;86.22;97825.94;5041423;28;20121;-59
2022/09/15 07:41:05;;;;;;;4.93;1.63;;;;;;;20.85;84.52;97819.81;5053871;28;20614;-57
2022/09/15 07:43:55;;;;;;;2.97;0.93;;;;;;;20.97;82.61;97823.59;5053994;28;20090;-59
2022/09/15 07:46:39;;;;;;;4.65;0.90;;;;;;;20.72;85.47;97829.38;5049908;28;20033;-59
2022/09/15 07:49:24;;;;;;;5.22;0.85;;;;;;;21.25;86.47;97828.06;5056442;28;20112;-59
2022/09/15 07:52:09;;;;;;;3.67;1.08;;;;;;;21.81;82.52;97835.25;5053040;28;20043;-58
2022/09/15 07:54:53;;;;;;;2.60;0.80;;;;;;;22.04;81.83;97837.56;5054429;28;20595;-58
2022/09/15 07:57:38;;;;;;;2.05;0.80;;;;;;;22.22;80.47;97830.81;5065023;28;20689;-60
2022/09/15 08:00:22;;;;;;;2.25;0.70;;;;;;;22.33;80.87;97832.06;5052410;28;20039;-60
2022/09/15 08:03:07;;;;;;;4.47;1.00;;;;;;;21.60;89.80;97834.34;5054252;28;20472;-59
2022/09/15 08:05:59;;;;;;;2.50;1.00;;;;;;;21.98;87.84;97843.72;5053900;28;20041;-60
2022/09/15 08:08:44;;;;;;;3.28;0.95;;;;;;;22.41;85.61;97834.50;5065962;28;20055;-60
2022/09/15 08:11:29;;;;;;;1.38;0.80;;;;;;;22.42;86.69;97832.69;5041008;28;20041;-59
2022/09/15 08:14:13;;;;;;;4.90;1.05;;;;;;;22.71;83.87;97835.97;5049615;28;20041;-60
2022/09/15 08:17:00;;;;;;;2.83;0.77;;;;;;;22.88;82.72;97833.72;5062720;28;20155;-58
2022/09/15 08:19:45;;;;;;;4.03;1.15;;;;;;;22.77;81.39;97835.97;5050901;28;20546;-59
2022/09/15 08:22:30;;;;;;;2.75;0.90;;;;;;;22.54;83.38;97835.56;5043494;28;20372;-59
2022/09/15 08:25:14;;;;;;;3.03;0.75;;;;;;;22.28;83.51;97832.66;5048431;28;20052;-59
2022/09/15 08:28:00;;;;;;;2.63;0.82;;;;;;;22.69;81.98;97832.69;5052871;28;20116;-60
2022/09/15 08:30:44;;;;;;;2.95;1.15;;;;;;;22.57;79.53;97825.28;5049417;28;20099;-59
2022/09/15 08:33:29;;;;;;;3.75;0.82;;;;;;;22.61;81.28;97823.88;5050363;28;20146;-60
2022/09/15 08:36:13;;;;;;;1.45;0.75;;;;;;;22.46;81.33;97826.72;5042108;28;20412;-60
2022/09/15 08:38:58;;;;;;;1.20;0.70;;;;;;;22.51;83.93;97831.44;5052985;28;20073;-60
2022/09/15 08:41:47;;;;;;;2.75;0.65;;;;;;;22.34;84.05;97825.72;5050506;28;20095;-60
2022/09/15 08:44:56;;;;;;;1.83;0.85;;;;;;;22.15;82.31;97815.63;5063364;28;20484;-60
2022/09/15 08:47:47;;;;;;;3.28;0.90;;;;;;;22.28;83.64;97809.50;5047892;28;20476;-60
2022/09/15 08:50:41;;;;;;;1.98;0.77;;;;;;;22.90;78.38;97796.94;5045017;28;20060;-60
2022/09/15 08:53:42;;;;;;;3.35;0.90;;;;;;;24.60;74.06;97811.03;5036444;28;20056;-59
2022/09/15 08:56:27;;;;;;;;;;;;;;;24.01;74.59;97815.81;5050912;28;20484;-60
2022/09/15 08:59:15;;;;;;;1.25;0.77;;;;;;;23.26;74.49;97806.28;5046871;28;19917;-59
2022/09/15 09:02:53;;;;;;;1.52;0.80;;;;;;;23.40;78.66;97805.44;5044368;28;20029;-62
2022/09/15 09:06:04;;;;;;;3.33;0.88;;;;;;;23.77;71.82;97804.81;4979095;28;20043;-68
2022/09/15 09:09:33;;;;;;;3.22;0.70;;;;;;;23.44;72.43;97786.09;4951933;28;20538;-68
2022/09/15 09:12:40;;;;;;;3.70;0.60;;;;;;;23.31;73.88;97781.59;4970563;28;20130;-68
2022/09/15 09:15:52;;;;;;;4.05;1.08;;;;;;;23.17;73.40;97778.16;4971651;28;20070;-61
2022/09/15 09:18:53;;;;;;;1.92;0.70;;;;;;;23.64;73.54;97774.47;4962160;28;20503;-61
2022/09/15 09:21:45;;;;;;;1.70;0.80;;;;;;;23.99;72.75;97768.69;4975904;28;20044;-62
2022/09/15 09:24:45;;;;;;;2.67;0.70;;;;;;;24.41;66.94;97770.03;4980177;28;20045;-62
2022/09/15 09:27:33;;;;;;;3.78;0.85;;;;;;;24.36;65.06;97760.00;4970315;28;20141;-62
2022/09/15 09:30:21;;;;;;;1.92;0.52;;;;;;;24.64;68.41;97763.22;4976055;28;20429;-66
2022/09/15 09:33:21;;;;;;;8.48;4.78;;;;;;;23.86;69.29;97763.44;4955343;28;20542;-69
2022/09/15 09:36:09;;;;;;;14.30;8.20;;;;;;;23.35;73.81;97753.44;4965044;28;20150;-63
2022/09/15 09:38:54;;;;;;;4.10;1.30;;;;;;;23.50;71.62;97758.50;4960926;28;20134;-63
2022/09/15 09:41:40;;;;;;;3.92;1.63;;;;;;;23.06;74.44;97752.13;4996017;28;20049;-62
2022/09/15 09:44:30;;;;;;;3.47;0.90;;;;;;;22.87;73.34;97744.78;5008258;28;20133;-63
2022/09/15 09:47:16;;;;;;;4.45;0.80;;;;;;;22.70;73.51;97746.28;5045898;28;20065;-64
2022/09/15 09:50:01;;;;;;;4.57;1.92;;;;;;;22.71;78.27;97737.22;5052330;28;20095;-69
2022/09/15 09:52:45;;;;;;;1.90;0.63;;;;;;;22.63;73.75;97730.28;5050422;28;20063;-63
2022/09/15 09:55:31;;;;;;;4.13;0.85;;;;;;;22.19;75.79;97738.72;5048611;28;20599;-63
2022/09/15 09:58:24;;;;;;;3.97;0.98;;;;;;;22.03;77.44;97732.75;5040086;28;20167;-62
2022/09/15 10:01:13;;;;;;;1.88;1.13;;;;;;;22.20;76.38;97727.03;5027319;28;20040;-62
2022/09/15 10:04:24;;;;;;;3.10;1.27;;;;;;;22.52;76.83;97711.16;5046612;28;20102;-61
2022/09/15 10:07:10;;;;;;;3.28;0.80;;;;;;;22.41;76.65;97709.13;5042550;28;20057;-62
2022/09/15 10:09:59;;;;;;;4.28;0.98;;;;;;;22.57;74.41;97707.88;5042241;28;20410;-63
2022/09/15 10:12:46;;;;;;;4.57;1.20;;;;;;;22.67;74.15;97701.31;5035212;28;20053;-62
2022/09/15 10:15:33;;;;;;;2.67;0.82;;;;;;;22.82;73.24;97715.22;5052882;28;20055;-60
2022/09/15 10:18:37;;;;;;;1.67;0.80;;;;;;;22.53;75.13;97717.34;5047985;28;20063;-60
2022/09/15 10:21:24;;;;;;;2.83;0.80;;;;;;;22.60;75.58;97722.69;5043064;28;20092;-62
2022/09/15 10:24:34;;;;;;;2.08;0.68;;;;;;;22.91;74.74;97720.34;5045289;28;20136;-64
2022/09/15 10:27:31;;;;;;;1.90;0.73;;;;;;;22.46;76.62;97719.19;5045385;28;20499;-60
2022/09/15 10:30:17;;;;;;;1.50;0.63;;;;;;;22.09;78.04;97733.81;5060639;28;20037;-65
2022/09/15 10:33:22;;;;;;;1.67;0.70;;;;;;;21.70;78.19;97735.38;5048216;28;20045;-64
2022/09/15 10:36:16;;;;;;;1.67;0.70;;;;;;;21.52;80.56;97739.44;5038461;28;20622;-60
2022/09/15 10:39:23;;;;;;;1.70;0.70;;;;;;;21.53;78.59;97741.91;5037340;28;20630;-62
2022/09/15 10:42:20;;;;;;;4.57;0.90;;;;;;;21.63;79.26;97738.03;5045076;28;20045;-62
2022/09/15 10:45:17;;;;;;;2.08;1.00;;;;;;;21.76;77.20;97732.72;5048396;28;20041;-57
2022/09/15 10:48:30;;;;;;;2.55;0.80;;;;;;;21.84;76.80;97721.06;5048264;28;20108;-63
2022/09/15 10:51:27;;;;;;;2.45;0.50;;;;;;;21.97;77.61;97720.25;5046607;28;20049;-70
2022/09/15 10:54:30;;;;;;;1.98;0.70;;;;;;;22.13;76.87;97721.69;5067516;28;20120;-66
2022/09/15 10:57:17;;;;;;;2.38;0.45;;;;;;;21.92;75.06;97720.03;5052208;28;20120;-60
2022/09/15 11:00:11;;;;;;;3.78;0.80;;;;;;;21.72;75.71;97717.34;5045427;28;20060;-62
2022/09/15 11:03:26;;;;;;;4.22;0.40;;;;;;;21.70;72.91;97719.38;5044414;28;20105;-62
2022/09/15 11:06:28;;;;;;;2.13;0.60;;;;;;;21.65;73.37;97725.34;5049150;28;20032;-61
2022/09/15 11:09:21;;;;;;;1.48;0.40;;;;;;;21.73;73.05;97711.00;5051688;28;20112;-63
2022/09/15 11:12:44;;;;;;;1.33;0.30;;;;;;;21.58;74.52;97719.16;5044471;28;20503;-63
2022/09/15 11:15:53;;;;;;;6.63;0.70;;;;;;;21.54;75.40;97713.44;5047473;28;20045;-62
2022/09/15 11:18:41;;;;;;;1.42;0.50;;;;;;;21.97;71.16;97706.94;5048449;28;20210;-60
2022/09/15 11:21:37;;;;;;;2.45;0.50;;;;;;;22.22;71.34;97702.81;5047542;28;20044;-61
2022/09/15 11:24:50;;;;;;;1.73;0.43;;;;;;;22.11;72.16;97710.44;5052287;28;20186;-59
2022/09/15 11:27:50;;;;;;;1.30;0.35;;;;;;;22.22;73.05;97703.63;5043296;28;20120;-63
2022/09/15 11:30:38;;;;;;;1.85;0.50;;;;;;;22.20;73.38;97704.84;5041159;28;20037;-61
2022/09/15 11:33:43;;;;;;;1.95;0.50;;;;;;;21.95;73.52;97703.63;5053283;28;20119;-59
2022/09/15 11:36:40;;;;;;;1.52;0.40;;;;;;;21.84;75.19;97696.25;5038013;28;20133;-60
2022/09/15 11:39:33;;;;;;;1.02;0.47;;;;;;;21.73;75.30;97698.50;5046508;28;20052;-60
2022/09/15 11:42:41;;;;;;;1.48;0.60;;;;;;;22.20;74.19;97695.03;5058718;28;20051;-60
2022/09/15 11:45:31;;;;;;;1.45;0.30;;;;;;;21.92;73.34;97706.72;5043210;28;20045;-62
2022/09/15 11:48:42;;;;;;;4.13;0.77;;;;;;;21.73;73.83;97692.34;5040590;28;20029;-64
2022/09/15 11:51:28;;;;;;;;;;;;;;;21.37;75.80;97692.50;5048292;28;20049;-62
2022/09/15 11:54:21;;;;;;;1.35;0.38;;;;;;;21.34;77.26;97708.88;5048432;28;20245;-64
2022/09/15 11:57:16;;;;;;;1.85;0.47;;;;;;;21.35;77.75;97699.06;5052349;28;20538;-60
2022/09/15 12:00:09;;;;;;;1.63;0.30;;;;;;;20.99;79.67;97711.66;5049917;28;20094;-60
2022/09/15 12:03:02;;;;;;;1.42;0.32;;;;;;;20.86;79.64;97709.72;5031657;28;20460;-63
2022/09/15 12:05:56;;;;;;;0.68;0.35;;;;;;;21.04;79.08;97702.03;5047998;28;20053;-60
2022/09/15 12:08:56;;;;;;;1.23;0.43;;;;;;;20.67;80.02;97702.25;5043362;28;20048;-60
2022/09/15 12:11:45;;;;;;;1.50;0.60;;;;;;;20.66;79.01;97694.47;5032771;28;20744;-60
2022/09/15 12:14:33;;;;;;;1.85;0.50;;;;;;;20.64;79.41;97699.16;5041765;28;20045;-62
2022/09/15 12:17:24;;;;;;;1.60;0.60;;;;;;;20.51;80.99;97698.09;5038824;28;20064;-60
2022/09/15 12:20:16;;;;;;;1.52;0.40;;;;;;;20.64;80.41;97694.66;5071887;28;20065;-62
2022/09/15 12:23:20;;;;;;;0.80;0.30;;;;;;;20.66;80.58;97697.94;5041482;28;20060;-62
2022/09/15 12:26:08;;;;;;;2.83;0.40;;;;;;;20.50;81.21;97708.91;5027496;28;20060;-62
2022/09/15 12:29:01;;;;;;;0.90;0.30;;;;;;;20.39;83.22;97705.78;5058747;28;20426;-60
2022/09/15 12:31:46;;;;;;;2.92;0.30;;;;;;;20.45;82.62;97711.34;5039262;28;20032;-61
2022/09/15 12:34:37;;;;;;;1.23;0.38;;;;;;;20.12;84.06;97720.72;5043437;28;20117;-66
2022/09/15 12:37:23;;;;;;;1.33;0.35;;;;;;;20.34;84.75;97697.56;5049167;28;20057;-60
2022/09/15 12:40:29;;;;;;;1.23;0.30;;;;;;;20.51;83.60;97686.63;5036470;28;20052;-64
2022/09/15 12:43:21;;;;;;;2.08;0.60;;;;;;;20.37;85.69;97685.72;5044489;28;20063;-63
2022/09/15 12:46:17;;;;;;;1.02;0.47;;;;;;;20.40;86.22;97688.78;5061984;28;20131;-60
2022/09/15 12:49:02;;;;;;;1.85;0.30;;;;;;;20.36;83.56;97695.53;5022512;28;20555;-60
2022/09/15 12:51:49;;;;;;;1.35;0.22;;;;;;;20.14;86.02;97687.59;5055324;28;20087;-60
2022/09/15 12:54:37;;;;;;;0.43;0.22;;;;;;;20.38;85.53;97679.38;5037642;28;20053;-60
2022/09/15 12:57:33;;;;;;;0.88;0.40;;;;;;;20.46;83.20;97665.09;5035713;28;20044;-66
2022/09/15 13:00:40;;;;;;;1.35;0.35;;;;;;;20.17;85.81;97665.16;5037701;28;20121;-61
2022/09/15 13:03:36;;;;;;;1.27;0.40;;;;;;;20.14;85.00;97662.88;5067516;28;20472;-60
2022/09/15 13:06:29;;;;;;;0.50;0.22;;;;;;;20.36;85.92;97645.00;5066794;28;20241;-61
2022/09/15 13:09:26;;;;;;;0.63;0.30;;;;;;;20.25;86.38;97642.91;5043048;28;20148;-61
2022/09/15 13:12:16;;;;;;;3.40;0.30;;;;;;;20.50;86.34;97645.09;5044151;28;20095;-61
2022/09/15 13:15:04;;;;;;;2.75;0.30;;;;;;;20.67;84.58;97637.56;5067676;28;20052;-69
2022/09/15 13:17:49;;;;;;;0.82;0.40;;;;;;;20.70;83.29;97644.31;5055408;28;20048;-61